sensor_id;sensor_type;location;lat;lon;timestamp;P1;durP1;ratioP1;P2;durP2;ratioP2
59167;SDS011;44948;55.046;73.266;2023-04-25T00:00:36;5.50;;;1.58;;
59167;SDS011;44948;55.046;73.266;2023-04-25T00:03:38;5.40;;;1.77;;
59167;SDS011;44948;55.046;73.266;2023-04-25T00:06:41;3.05;;;1.55;;
59167;SDS011;44948;55.046;73.266;2023-04-25T00:09:44;4.10;;;1.80;;
59167;SDS011;44948;55.046;73.266;2023-04-25T00:12:46;5.95;;;1.60;;
59167;SDS011;44948;55.046;73.266;2023-04-25T00:15:49;3.30;;;1.38;;
59167;SDS011;44948;55.046;73.266;2023-04-25T00:18:52;4.40;;;1.27;;
59167;SDS011;44948;55.046;73.266;2023-04-25T00:21:55;5.25;;;1.90;;
59167;SDS011;44948;55.046;73.266;2023-04-25T00:24:57;8.38;;;3.30;;
59167;SDS011;44948;55.046;73.266;2023-04-25T00:28:03;14.93;;;5.47;;
59167;SDS011;44948;55.046;73.266;2023-04-25T00:31:05;14.50;;;6.45;;
59167;SDS011;44948;55.046;73.266;2023-04-25T00:34:07;12.43;;;3.42;;
59167;SDS011;44948;55.046;73.266;2023-04-25T00:37:10;5.65;;;2.17;;
59167;SDS011;44948;55.046;73.266;2023-04-25T00:40:13;7.18;;;2.28;;
59167;SDS011;44948;55.046;73.266;2023-04-25T00:43:15;10.68;;;3.20;;
59167;SDS011;44948;55.046;73.266;2023-04-25T00:46:17;7.83;;;2.70;;
59167;SDS011;44948;55.046;73.266;2023-04-25T00:49:30;11.27;;;2.00;;
59167;SDS011;44948;55.046;73.266;2023-04-25T00:52:32;8.60;;;1.75;;
59167;SDS011;44948;55.046;73.266;2023-04-25T00:55:34;8.25;;;2.05;;
59167;SDS011;44948;55.046;73.266;2023-04-25T00:58:37;5.85;;;1.60;;
59167;SDS011;44948;55.046;73.266;2023-04-25T01:01:44;6.20;;;1.95;;
59167;SDS011;44948;55.046;73.266;2023-04-25T01:04:47;7.80;;;1.80;;
59167;SDS011;44948;55.046;73.266;2023-04-25T01:07:49;6.63;;;1.55;;
59167;SDS011;44948;55.046;73.266;2023-04-25T01:10:52;5.43;;;1.80;;
59167;SDS011;44948;55.046;73.266;2023-04-25T01:13:54;5.25;;;1.80;;
59167;SDS011;44948;55.046;73.266;2023-04-25T01:16:56;13.65;;;1.90;;
59167;SDS011;44948;55.046;73.266;2023-04-25T01:20:09;6.35;;;1.80;;
59167;SDS011;44948;55.046;73.266;2023-04-25T01:23:12;8.25;;;1.75;;
59167;SDS011;44948;55.046;73.266;2023-04-25T01:26:26;6.57;;;1.63;;
59167;SDS011;44948;55.046;73.266;2023-04-25T01:29:28;4.03;;;1.70;;
59167;SDS011;44948;55.046;73.266;2023-04-25T01:32:30;7.82;;;1.90;;
59167;SDS011;44948;55.046;73.266;2023-04-25T01:35:39;8.75;;;2.10;;
59167;SDS011;44948;55.046;73.266;2023-04-25T01:38:42;10.57;;;2.17;;
59167;SDS011;44948;55.046;73.266;2023-04-25T01:41:45;9.02;;;1.88;;
59167;SDS011;44948;55.046;73.266;2023-04-25T01:44:48;8.07;;;2.15;;
59167;SDS011;44948;55.046;73.266;2023-04-25T01:47:50;8.40;;;2.00;;
59167;SDS011;44948;55.046;73.266;2023-04-25T01:50:52;6.97;;;2.22;;
59167;SDS011;44948;55.046;73.266;2023-04-25T01:53:54;7.07;;;1.98;;
59167;SDS011;44948;55.046;73.266;2023-04-25T01:57:04;8.38;;;2.25;;
59167;SDS011;44948;55.046;73.266;2023-04-25T02:00:10;9.02;;;1.90;;
59167;SDS011;44948;55.046;73.266;2023-04-25T02:03:15;8.98;;;2.08;;
59167;SDS011;44948;55.046;73.266;2023-04-25T02:06:17;8.73;;;1.70;;
59167;SDS011;44948;55.046;73.266;2023-04-25T02:09:22;5.90;;;1.83;;
59167;SDS011;44948;55.046;73.266;2023-04-25T02:12:32;5.00;;;1.80;;
59167;SDS011;44948;55.046;73.266;2023-04-25T02:16:07;5.47;;;1.83;;
59167;SDS011;44948;55.046;73.266;2023-04-25T02:19:09;8.30;;;2.15;;
59167;SDS011;44948;55.046;73.266;2023-04-25T02:22:11;8.15;;;2.05;;
59167;SDS011;44948;55.046;73.266;2023-04-25T02:25:14;7.68;;;2.00;;
59167;SDS011;44948;55.046;73.266;2023-04-25T02:28:17;6.40;;;2.20;;
59167;SDS011;44948;55.046;73.266;2023-04-25T02:31:20;15.57;;;4.32;;
59167;SDS011;44948;55.046;73.266;2023-04-25T02:34:22;7.72;;;3.30;;
59167;SDS011;44948;55.046;73.266;2023-04-25T02:37:24;9.95;;;3.05;;
59167;SDS011;44948;55.046;73.266;2023-04-25T02:40:26;7.97;;;2.53;;
59167;SDS011;44948;55.046;73.266;2023-04-25T02:43:29;5.47;;;1.90;;
59167;SDS011;44948;55.046;73.266;2023-04-25T02:46:31;15.10;;;5.80;;
59167;SDS011;44948;55.046;73.266;2023-04-25T02:49:34;9.88;;;3.67;;
59167;SDS011;44948;55.046;73.266;2023-04-25T02:52:37;6.40;;;1.80;;
59167;SDS011;44948;55.046;73.266;2023-04-25T02:55:52;8.65;;;1.92;;
59167;SDS011;44948;55.046;73.266;2023-04-25T02:58:59;3.27;;;1.77;;
59167;SDS011;44948;55.046;73.266;2023-04-25T03:02:02;8.00;;;2.45;;
59167;SDS011;44948;55.046;73.266;2023-04-25T03:05:04;7.22;;;2.05;;
59167;SDS011;44948;55.046;73.266;2023-04-25T03:08:07;8.77;;;2.90;;
59167;SDS011;44948;55.046;73.266;2023-04-25T03:11:12;3.65;;;1.80;;
59167;SDS011;44948;55.046;73.266;2023-04-25T03:14:19;7.22;;;1.90;;
59167;SDS011;44948;55.046;73.266;2023-04-25T03:17:21;4.60;;;2.30;;
59167;SDS011;44948;55.046;73.266;2023-04-25T03:20:24;6.43;;;2.90;;
59167;SDS011;44948;55.046;73.266;2023-04-25T03:23:27;5.60;;;2.22;;
59167;SDS011;44948;55.046;73.266;2023-04-25T03:26:35;5.60;;;2.38;;
59167;SDS011;44948;55.046;73.266;2023-04-25T03:29:37;6.68;;;1.90;;
59167;SDS011;44948;55.046;73.266;2023-04-25T03:32:40;8.65;;;1.90;;
59167;SDS011;44948;55.046;73.266;2023-04-25T03:35:42;10.48;;;3.08;;
59167;SDS011;44948;55.046;73.266;2023-04-25T03:38:45;9.38;;;2.30;;
59167;SDS011;44948;55.046;73.266;2023-04-25T03:44:54;11.13;;;2.20;;
59167;SDS011;44948;55.046;73.266;2023-04-25T03:47:59;6.43;;;1.95;;
59167;SDS011;44948;55.046;73.266;2023-04-25T03:51:03;7.55;;;1.90;;
59167;SDS011;44948;55.046;73.266;2023-04-25T03:54:08;4.63;;;1.92;;
59167;SDS011;44948;55.046;73.266;2023-04-25T03:57:34;7.47;;;2.40;;
59167;SDS011;44948;55.046;73.266;2023-04-25T04:00:36;12.05;;;2.40;;
59167;SDS011;44948;55.046;73.266;2023-04-25T04:03:38;6.43;;;2.72;;
59167;SDS011;44948;55.046;73.266;2023-04-25T04:06:45;6.88;;;2.22;;
59167;SDS011;44948;55.046;73.266;2023-04-25T04:10:09;10.77;;;2.05;;
59167;SDS011;44948;55.046;73.266;2023-04-25T04:13:14;4.18;;;2.00;;
59167;SDS011;44948;55.046;73.266;2023-04-25T04:16:16;4.57;;;1.73;;
59167;SDS011;44948;55.046;73.266;2023-04-25T04:19:29;8.30;;;1.97;;
59167;SDS011;44948;55.046;73.266;2023-04-25T04:22:45;5.70;;;2.28;;
59167;SDS011;44948;55.046;73.266;2023-04-25T04:25:49;21.58;;;2.40;;
59167;SDS011;44948;55.046;73.266;2023-04-25T04:29:04;14.33;;;2.73;;
59167;SDS011;44948;55.046;73.266;2023-04-25T04:32:21;12.07;;;2.95;;
59167;SDS011;44948;55.046;73.266;2023-04-25T04:35:25;8.70;;;2.45;;
59167;SDS011;44948;55.046;73.266;2023-04-25T04:38:27;4.45;;;2.22;;
59167;SDS011;44948;55.046;73.266;2023-04-25T04:41:33;9.45;;;2.67;;
59167;SDS011;44948;55.046;73.266;2023-04-25T04:45:08;6.90;;;2.67;;
59167;SDS011;44948;55.046;73.266;2023-04-25T04:48:35;8.50;;;2.55;;
59167;SDS011;44948;55.046;73.266;2023-04-25T04:51:56;9.98;;;1.95;;
59167;SDS011;44948;55.046;73.266;2023-04-25T04:55:30;7.68;;;3.75;;
59167;SDS011;44948;55.046;73.266;2023-04-25T04:58:53;13.77;;;4.83;;
59167;SDS011;44948;55.046;73.266;2023-04-25T05:01:57;8.75;;;2.88;;
59167;SDS011;44948;55.046;73.266;2023-04-25T05:05:19;8.20;;;2.90;;
59167;SDS011;44948;55.046;73.266;2023-04-25T05:08:44;10.02;;;4.35;;
59167;SDS011;44948;55.046;73.266;2023-04-25T05:12:17;8.93;;;2.72;;
59167;SDS011;44948;55.046;73.266;2023-04-25T05:15:24;8.25;;;2.58;;
59167;SDS011;44948;55.046;73.266;2023-04-25T05:18:52;7.03;;;1.98;;
59167;SDS011;44948;55.046;73.266;2023-04-25T05:22:17;11.80;;;2.35;;
59167;SDS011;44948;55.046;73.266;2023-04-25T05:25:30;5.47;;;1.83;;
59167;SDS011;44948;55.046;73.266;2023-04-25T05:28:40;3.13;;;1.30;;
59167;SDS011;44948;55.046;73.266;2023-04-25T05:32:02;6.85;;;2.10;;
59167;SDS011;44948;55.046;73.266;2023-04-25T05:35:05;5.82;;;1.80;;
59167;SDS011;44948;55.046;73.266;2023-04-25T05:38:15;10.23;;;1.90;;
59167;SDS011;44948;55.046;73.266;2023-04-25T05:41:53;5.30;;;1.95;;
59167;SDS011;44948;55.046;73.266;2023-04-25T05:45:18;4.28;;;1.48;;
59167;SDS011;44948;55.046;73.266;2023-04-25T05:48:35;5.18;;;2.38;;
59167;SDS011;44948;55.046;73.266;2023-04-25T05:52:11;4.65;;;2.10;;
59167;SDS011;44948;55.046;73.266;2023-04-25T05:55:27;6.05;;;1.63;;
59167;SDS011;44948;55.046;73.266;2023-04-25T05:58:33;2.75;;;1.60;;
59167;SDS011;44948;55.046;73.266;2023-04-25T06:01:35;5.15;;;1.50;;
59167;SDS011;44948;55.046;73.266;2023-04-25T06:04:38;4.10;;;1.40;;
59167;SDS011;44948;55.046;73.266;2023-04-25T06:07:46;3.88;;;1.40;;
59167;SDS011;44948;55.046;73.266;2023-04-25T06:10:58;5.75;;;1.70;;
59167;SDS011;44948;55.046;73.266;2023-04-25T06:14:00;6.50;;;2.30;;
59167;SDS011;44948;55.046;73.266;2023-04-25T06:17:02;5.55;;;2.30;;
59167;SDS011;44948;55.046;73.266;2023-04-25T06:20:18;8.43;;;2.33;;
59167;SDS011;44948;55.046;73.266;2023-04-25T06:23:34;6.40;;;1.70;;
59167;SDS011;44948;55.046;73.266;2023-04-25T06:26:42;10.02;;;2.97;;
59167;SDS011;44948;55.046;73.266;2023-04-25T06:29:45;7.87;;;2.80;;
59167;SDS011;44948;55.046;73.266;2023-04-25T06:32:47;9.88;;;3.72;;
59167;SDS011;44948;55.046;73.266;2023-04-25T06:35:49;12.50;;;4.95;;
59167;SDS011;44948;55.046;73.266;2023-04-25T06:39:01;11.48;;;3.90;;
59167;SDS011;44948;55.046;73.266;2023-04-25T06:42:10;11.68;;;2.83;;
59167;SDS011;44948;55.046;73.266;2023-04-25T06:45:38;10.23;;;2.33;;
59167;SDS011;44948;55.046;73.266;2023-04-25T06:48:43;46.28;;;13.70;;
59167;SDS011;44948;55.046;73.266;2023-04-25T06:51:50;4.78;;;1.80;;
59167;SDS011;44948;55.046;73.266;2023-04-25T06:54:52;9.45;;;4.38;;
59167;SDS011;44948;55.046;73.266;2023-04-25T06:58:18;5.68;;;1.92;;
59167;SDS011;44948;55.046;73.266;2023-04-25T07:01:40;6.20;;;1.80;;
59167;SDS011;44948;55.046;73.266;2023-04-25T07:05:01;6.50;;;1.65;;
59167;SDS011;44948;55.046;73.266;2023-04-25T07:08:06;7.50;;;2.70;;
59167;SDS011;44948;55.046;73.266;2023-04-25T07:11:08;6.47;;;1.90;;
59167;SDS011;44948;55.046;73.266;2023-04-25T07:14:16;3.42;;;1.67;;
59167;SDS011;44948;55.046;73.266;2023-04-25T07:17:20;4.72;;;1.77;;
59167;SDS011;44948;55.046;73.266;2023-04-25T07:20:22;5.23;;;1.67;;
59167;SDS011;44948;55.046;73.266;2023-04-25T07:23:24;4.80;;;1.60;;
59167;SDS011;44948;55.046;73.266;2023-04-25T07:26:26;3.45;;;1.70;;
59167;SDS011;44948;55.046;73.266;2023-04-25T07:29:54;5.18;;;1.80;;
59167;SDS011;44948;55.046;73.266;2023-04-25T07:32:58;7.50;;;1.70;;
59167;SDS011;44948;55.046;73.266;2023-04-25T07:36:00;4.88;;;1.65;;
59167;SDS011;44948;55.046;73.266;2023-04-25T07:39:02;7.00;;;1.88;;
59167;SDS011;44948;55.046;73.266;2023-04-25T07:42:05;6.72;;;2.28;;
59167;SDS011;44948;55.046;73.266;2023-04-25T07:45:15;6.80;;;1.67;;
59167;SDS011;44948;55.046;73.266;2023-04-25T07:48:17;3.38;;;1.48;;
59167;SDS011;44948;55.046;73.266;2023-04-25T07:51:35;5.63;;;1.73;;
59167;SDS011;44948;55.046;73.266;2023-04-25T07:54:42;5.25;;;1.65;;
59167;SDS011;44948;55.046;73.266;2023-04-25T07:57:51;7.32;;;2.05;;
59167;SDS011;44948;55.046;73.266;2023-04-25T08:00:55;5.97;;;2.55;;
59167;SDS011;44948;55.046;73.266;2023-04-25T08:04:09;11.90;;;3.25;;
59167;SDS011;44948;55.046;73.266;2023-04-25T08:07:32;12.18;;;3.40;;
59167;SDS011;44948;55.046;73.266;2023-04-25T08:10:39;3.73;;;1.60;;
59167;SDS011;44948;55.046;73.266;2023-04-25T08:13:45;7.00;;;2.88;;
59167;SDS011;44948;55.046;73.266;2023-04-25T08:16:47;6.85;;;2.00;;
59167;SDS011;44948;55.046;73.266;2023-04-25T08:19:49;10.02;;;2.88;;
59167;SDS011;44948;55.046;73.266;2023-04-25T08:23:09;5.28;;;1.90;;
59167;SDS011;44948;55.046;73.266;2023-04-25T08:29:38;10.23;;;2.63;;
59167;SDS011;44948;55.046;73.266;2023-04-25T08:32:41;5.65;;;2.15;;
59167;SDS011;44948;55.046;73.266;2023-04-25T08:36:01;5.10;;;2.10;;
59167;SDS011;44948;55.046;73.266;2023-04-25T08:39:05;11.82;;;3.72;;
59167;SDS011;44948;55.046;73.266;2023-04-25T08:42:15;8.02;;;3.05;;
59167;SDS011;44948;55.046;73.266;2023-04-25T08:45:18;7.03;;;2.20;;
59167;SDS011;44948;55.046;73.266;2023-04-25T08:48:21;14.35;;;2.55;;
59167;SDS011;44948;55.046;73.266;2023-04-25T08:51:23;10.68;;;1.98;;
59167;SDS011;44948;55.046;73.266;2023-04-25T08:54:46;9.88;;;2.58;;
59167;SDS011;44948;55.046;73.266;2023-04-25T08:57:50;6.80;;;1.92;;
59167;SDS011;44948;55.046;73.266;2023-04-25T09:00:53;7.93;;;2.17;;
59167;SDS011;44948;55.046;73.266;2023-04-25T09:03:58;6.90;;;2.57;;
59167;SDS011;44948;55.046;73.266;2023-04-25T09:07:00;5.57;;;2.00;;
59167;SDS011;44948;55.046;73.266;2023-04-25T09:10:03;10.07;;;2.95;;
59167;SDS011;44948;55.046;73.266;2023-04-25T09:13:10;9.80;;;3.67;;
59167;SDS011;44948;55.046;73.266;2023-04-25T09:20:12;8.65;;;4.22;;
59167;SDS011;44948;55.046;73.266;2023-04-25T09:23:15;7.90;;;4.50;;
59167;SDS011;44948;55.046;73.266;2023-04-25T09:26:20;9.15;;;3.20;;
59167;SDS011;44948;55.046;73.266;2023-04-25T09:29:31;7.78;;;3.97;;
59167;SDS011;44948;55.046;73.266;2023-04-25T09:32:33;4.63;;;2.33;;
59167;SDS011;44948;55.046;73.266;2023-04-25T09:35:37;7.15;;;2.60;;
59167;SDS011;44948;55.046;73.266;2023-04-25T09:38:43;5.35;;;2.30;;
59167;SDS011;44948;55.046;73.266;2023-04-25T09:41:53;10.75;;;3.10;;
59167;SDS011;44948;55.046;73.266;2023-04-25T09:44:56;10.43;;;3.55;;
59167;SDS011;44948;55.046;73.266;2023-04-25T09:48:03;12.35;;;4.22;;
59167;SDS011;44948;55.046;73.266;2023-04-25T09:51:11;6.38;;;4.43;;
59167;SDS011;44948;55.046;73.266;2023-04-25T09:54:13;6.50;;;4.00;;
59167;SDS011;44948;55.046;73.266;2023-04-25T09:57:21;5.00;;;3.05;;
59167;SDS011;44948;55.046;73.266;2023-04-25T10:00:24;8.68;;;3.47;;
59167;SDS011;44948;55.046;73.266;2023-04-25T10:03:27;13.25;;;4.72;;
59167;SDS011;44948;55.046;73.266;2023-04-25T10:06:50;5.90;;;2.45;;
59167;SDS011;44948;55.046;73.266;2023-04-25T10:09:58;10.23;;;2.97;;
59167;SDS011;44948;55.046;73.266;2023-04-25T10:13:05;9.15;;;5.68;;
59167;SDS011;44948;55.046;73.266;2023-04-25T10:16:07;6.57;;;2.45;;
59167;SDS011;44948;55.046;73.266;2023-04-25T10:19:14;13.73;;;4.93;;
59167;SDS011;44948;55.046;73.266;2023-04-25T10:22:21;5.75;;;2.88;;
59167;SDS011;44948;55.046;73.266;2023-04-25T10:25:25;15.57;;;6.40;;
59167;SDS011;44948;55.046;73.266;2023-04-25T10:28:27;9.13;;;3.00;;
59167;SDS011;44948;55.046;73.266;2023-04-25T10:31:38;7.40;;;2.40;;
59167;SDS011;44948;55.046;73.266;2023-04-25T10:34:46;4.60;;;2.95;;
59167;SDS011;44948;55.046;73.266;2023-04-25T10:41:04;34.65;;;18.00;;
59167;SDS011;44948;55.046;73.266;2023-04-25T10:44:11;58.35;;;29.02;;
59167;SDS011;44948;55.046;73.266;2023-04-25T10:47:13;5.47;;;3.95;;
59167;SDS011;44948;55.046;73.266;2023-04-25T10:50:45;5.65;;;2.45;;
59167;SDS011;44948;55.046;73.266;2023-04-25T10:56:58;9.00;;;3.70;;
59167;SDS011;44948;55.046;73.266;2023-04-25T11:00:07;5.53;;;1.88;;
59167;SDS011;44948;55.046;73.266;2023-04-25T11:03:15;10.00;;;2.50;;
59167;SDS011;44948;55.046;73.266;2023-04-25T11:09:23;5.80;;;2.17;;
59167;SDS011;44948;55.046;73.266;2023-04-25T11:12:31;16.65;;;4.75;;
59167;SDS011;44948;55.046;73.266;2023-04-25T11:15:33;22.83;;;6.07;;
59167;SDS011;44948;55.046;73.266;2023-04-25T11:18:35;10.82;;;4.45;;
59167;SDS011;44948;55.046;73.266;2023-04-25T11:21:39;11.75;;;3.65;;
59167;SDS011;44948;55.046;73.266;2023-04-25T11:24:41;13.00;;;3.97;;
59167;SDS011;44948;55.046;73.266;2023-04-25T11:27:51;6.63;;;1.85;;
59167;SDS011;44948;55.046;73.266;2023-04-25T11:30:53;10.60;;;3.50;;
59167;SDS011;44948;55.046;73.266;2023-04-25T11:33:58;11.10;;;4.90;;
59167;SDS011;44948;55.046;73.266;2023-04-25T11:37:00;8.85;;;4.05;;
59167;SDS011;44948;55.046;73.266;2023-04-25T11:40:09;13.27;;;5.30;;
59167;SDS011;44948;55.046;73.266;2023-04-25T11:43:11;11.48;;;4.28;;
59167;SDS011;44948;55.046;73.266;2023-04-25T11:46:13;9.73;;;3.70;;
59167;SDS011;44948;55.046;73.266;2023-04-25T11:49:15;15.75;;;4.30;;
59167;SDS011;44948;55.046;73.266;2023-04-25T11:52:44;14.07;;;4.10;;
59167;SDS011;44948;55.046;73.266;2023-04-25T11:55:46;12.95;;;4.28;;
59167;SDS011;44948;55.046;73.266;2023-04-25T11:58:58;4.13;;;2.97;;
59167;SDS011;44948;55.046;73.266;2023-04-25T12:05:09;5.68;;;3.63;;
59167;SDS011;44948;55.046;73.266;2023-04-25T12:08:15;16.23;;;5.22;;
59167;SDS011;44948;55.046;73.266;2023-04-25T12:11:21;17.08;;;4.15;;
59167;SDS011;44948;55.046;73.266;2023-04-25T12:14:34;13.33;;;6.97;;
59167;SDS011;44948;55.046;73.266;2023-04-25T12:17:38;11.52;;;4.85;;
59167;SDS011;44948;55.046;73.266;2023-04-25T12:20:41;7.60;;;2.80;;
59167;SDS011;44948;55.046;73.266;2023-04-25T12:23:43;14.35;;;3.83;;
59167;SDS011;44948;55.046;73.266;2023-04-25T12:30:01;13.70;;;3.95;;
59167;SDS011;44948;55.046;73.266;2023-04-25T12:33:08;13.88;;;4.88;;
59167;SDS011;44948;55.046;73.266;2023-04-25T12:36:10;8.40;;;3.78;;
59167;SDS011;44948;55.046;73.266;2023-04-25T12:42:18;9.45;;;3.95;;
59167;SDS011;44948;55.046;73.266;2023-04-25T12:45:20;8.00;;;3.42;;
59167;SDS011;44948;55.046;73.266;2023-04-25T12:48:28;17.00;;;5.00;;
59167;SDS011;44948;55.046;73.266;2023-04-25T12:51:30;4.65;;;2.10;;
59167;SDS011;44948;55.046;73.266;2023-04-25T12:54:34;6.30;;;1.98;;
59167;SDS011;44948;55.046;73.266;2023-04-25T12:57:42;6.63;;;3.15;;
59167;SDS011;44948;55.046;73.266;2023-04-25T13:00:44;9.63;;;3.50;;
59167;SDS011;44948;55.046;73.266;2023-04-25T13:03:47;14.48;;;4.10;;
59167;SDS011;44948;55.046;73.266;2023-04-25T13:06:49;15.43;;;5.10;;
59167;SDS011;44948;55.046;73.266;2023-04-25T13:10:01;7.88;;;3.03;;
59167;SDS011;44948;55.046;73.266;2023-04-25T13:13:10;25.73;;;8.77;;
59167;SDS011;44948;55.046;73.266;2023-04-25T13:16:11;19.38;;;8.88;;
59167;SDS011;44948;55.046;73.266;2023-04-25T13:19:26;18.08;;;8.20;;
59167;SDS011;44948;55.046;73.266;2023-04-25T13:22:30;13.50;;;6.25;;
59167;SDS011;44948;55.046;73.266;2023-04-25T13:25:35;11.63;;;4.28;;
59167;SDS011;44948;55.046;73.266;2023-04-25T13:28:37;7.13;;;3.35;;
59167;SDS011;44948;55.046;73.266;2023-04-25T13:31:44;10.98;;;3.05;;
59167;SDS011;44948;55.046;73.266;2023-04-25T13:34:49;22.63;;;12.27;;
59167;SDS011;44948;55.046;73.266;2023-04-25T13:37:51;46.10;;;19.48;;
59167;SDS011;44948;55.046;73.266;2023-04-25T13:40:53;26.77;;;13.55;;
59167;SDS011;44948;55.046;73.266;2023-04-25T13:43:54;43.04;;;21.64;;
59167;SDS011;44948;55.046;73.266;2023-04-25T13:47:01;39.30;;;20.10;;
59167;SDS011;44948;55.046;73.266;2023-04-25T13:50:12;29.27;;;13.48;;
59167;SDS011;44948;55.046;73.266;2023-04-25T13:53:19;63.60;;;33.25;;
59167;SDS011;44948;55.046;73.266;2023-04-25T13:56:24;26.00;;;13.63;;
59167;SDS011;44948;55.046;73.266;2023-04-25T13:59:26;28.55;;;14.00;;
59167;SDS011;44948;55.046;73.266;2023-04-25T14:02:28;34.05;;;14.20;;
59167;SDS011;44948;55.046;73.266;2023-04-25T14:05:37;25.35;;;11.98;;
59167;SDS011;44948;55.046;73.266;2023-04-25T14:08:48;38.30;;;10.52;;
59167;SDS011;44948;55.046;73.266;2023-04-25T14:12:00;15.35;;;6.60;;
59167;SDS011;44948;55.046;73.266;2023-04-25T14:15:13;22.85;;;9.65;;
59167;SDS011;44948;55.046;73.266;2023-04-25T14:18:16;149.30;;;50.45;;
59167;SDS011;44948;55.046;73.266;2023-04-25T14:21:18;301.88;;;114.82;;
59167;SDS011;44948;55.046;73.266;2023-04-25T14:27:33;81.82;;;30.20;;
59167;SDS011;44948;55.046;73.266;2023-04-25T14:30:40;74.70;;;28.67;;
59167;SDS011;44948;55.046;73.266;2023-04-25T14:33:42;99.97;;;42.42;;
59167;SDS011;44948;55.046;73.266;2023-04-25T14:36:44;69.20;;;24.27;;
59167;SDS011;44948;55.046;73.266;2023-04-25T14:39:49;47.88;;;13.32;;
59167;SDS011;44948;55.046;73.266;2023-04-25T14:42:51;42.45;;;19.98;;
59167;SDS011;44948;55.046;73.266;2023-04-25T14:45:53;66.43;;;20.55;;
59167;SDS011;44948;55.046;73.266;2023-04-25T14:48:55;41.70;;;13.38;;
59167;SDS011;44948;55.046;73.266;2023-04-25T14:51:57;45.17;;;12.35;;
59167;SDS011;44948;55.046;73.266;2023-04-25T14:54:59;31.67;;;11.65;;
59167;SDS011;44948;55.046;73.266;2023-04-25T14:58:06;27.20;;;10.80;;
59167;SDS011;44948;55.046;73.266;2023-04-25T15:01:08;34.90;;;10.20;;
59167;SDS011;44948;55.046;73.266;2023-04-25T15:04:10;35.38;;;13.02;;
59167;SDS011;44948;55.046;73.266;2023-04-25T15:07:14;33.80;;;12.15;;
59167;SDS011;44948;55.046;73.266;2023-04-25T15:10:17;39.60;;;10.90;;
59167;SDS011;44948;55.046;73.266;2023-04-25T15:13:20;65.85;;;25.83;;
59167;SDS011;44948;55.046;73.266;2023-04-25T15:16:22;96.40;;;35.93;;
59167;SDS011;44948;55.046;73.266;2023-04-25T15:19:24;89.60;;;34.40;;
59167;SDS011;44948;55.046;73.266;2023-04-25T15:22:33;75.80;;;30.92;;
59167;SDS011;44948;55.046;73.266;2023-04-25T15:25:41;61.03;;;24.25;;
59167;SDS011;44948;55.046;73.266;2023-04-25T15:28:43;78.55;;;31.67;;
59167;SDS011;44948;55.046;73.266;2023-04-25T15:31:45;60.28;;;16.70;;
59167;SDS011;44948;55.046;73.266;2023-04-25T15:34:53;37.64;;;12.06;;
59167;SDS011;44948;55.046;73.266;2023-04-25T15:37:55;47.95;;;18.55;;
59167;SDS011;44948;55.046;73.266;2023-04-25T15:40:57;37.80;;;14.57;;
59167;SDS011;44948;55.046;73.266;2023-04-25T15:44:00;46.72;;;18.23;;
59167;SDS011;44948;55.046;73.266;2023-04-25T15:47:02;38.50;;;15.43;;
59167;SDS011;44948;55.046;73.266;2023-04-25T15:50:04;41.25;;;15.20;;
59167;SDS011;44948;55.046;73.266;2023-04-25T15:53:10;57.33;;;23.02;;
59167;SDS011;44948;55.046;73.266;2023-04-25T15:56:12;67.95;;;29.35;;
59167;SDS011;44948;55.046;73.266;2023-04-25T15:59:14;31.08;;;11.82;;
59167;SDS011;44948;55.046;73.266;2023-04-25T16:02:17;27.55;;;10.52;;
59167;SDS011;44948;55.046;73.266;2023-04-25T16:05:19;28.40;;;12.70;;
59167;SDS011;44948;55.046;73.266;2023-04-25T16:08:22;26.77;;;10.75;;
59167;SDS011;44948;55.046;73.266;2023-04-25T16:11:25;25.67;;;9.48;;
59167;SDS011;44948;55.046;73.266;2023-04-25T16:14:28;20.00;;;8.93;;
59167;SDS011;44948;55.046;73.266;2023-04-25T16:17:33;23.40;;;7.10;;
59167;SDS011;44948;55.046;73.266;2023-04-25T16:20:35;18.77;;;6.85;;
59167;SDS011;44948;55.046;73.266;2023-04-25T16:23:37;20.65;;;8.60;;
59167;SDS011;44948;55.046;73.266;2023-04-25T16:26:40;20.70;;;7.60;;
59167;SDS011;44948;55.046;73.266;2023-04-25T16:29:43;17.88;;;6.97;;
59167;SDS011;44948;55.046;73.266;2023-04-25T16:32:45;21.70;;;6.38;;
59167;SDS011;44948;55.046;73.266;2023-04-25T16:35:46;16.80;;;5.90;;
59167;SDS011;44948;55.046;73.266;2023-04-25T16:39:00;11.82;;;6.10;;
59167;SDS011;44948;55.046;73.266;2023-04-25T16:42:02;16.75;;;6.75;;
59167;SDS011;44948;55.046;73.266;2023-04-25T16:45:08;13.23;;;6.07;;
59167;SDS011;44948;55.046;73.266;2023-04-25T16:48:10;13.73;;;6.45;;
59167;SDS011;44948;55.046;73.266;2023-04-25T16:51:22;18.45;;;5.63;;
59167;SDS011;44948;55.046;73.266;2023-04-25T16:54:33;16.70;;;5.20;;
59167;SDS011;44948;55.046;73.266;2023-04-25T16:57:41;15.60;;;5.80;;
59167;SDS011;44948;55.046;73.266;2023-04-25T17:00:53;10.95;;;4.75;;
59167;SDS011;44948;55.046;73.266;2023-04-25T17:03:56;10.73;;;4.95;;
59167;SDS011;44948;55.046;73.266;2023-04-25T17:06:58;12.33;;;4.70;;
59167;SDS011;44948;55.046;73.266;2023-04-25T17:10:00;13.45;;;4.68;;
59167;SDS011;44948;55.046;73.266;2023-04-25T17:13:02;10.60;;;4.60;;
59167;SDS011;44948;55.046;73.266;2023-04-25T17:16:04;12.32;;;4.88;;
59167;SDS011;44948;55.046;73.266;2023-04-25T17:19:07;15.27;;;5.20;;
59167;SDS011;44948;55.046;73.266;2023-04-25T17:22:12;15.07;;;4.73;;
59167;SDS011;44948;55.046;73.266;2023-04-25T17:25:14;12.30;;;5.22;;
59167;SDS011;44948;55.046;73.266;2023-04-25T17:28:25;16.08;;;5.32;;
59167;SDS011;44948;55.046;73.266;2023-04-25T17:31:27;12.20;;;4.60;;
59167;SDS011;44948;55.046;73.266;2023-04-25T17:34:29;19.77;;;7.18;;
59167;SDS011;44948;55.046;73.266;2023-04-25T17:37:34;24.10;;;8.07;;
59167;SDS011;44948;55.046;73.266;2023-04-25T17:40:36;18.05;;;6.20;;
59167;SDS011;44948;55.046;73.266;2023-04-25T17:43:39;14.00;;;5.97;;
59167;SDS011;44948;55.046;73.266;2023-04-25T17:46:41;14.83;;;5.00;;
59167;SDS011;44948;55.046;73.266;2023-04-25T17:49:43;10.30;;;4.38;;
59167;SDS011;44948;55.046;73.266;2023-04-25T17:52:45;8.23;;;3.10;;
59167;SDS011;44948;55.046;73.266;2023-04-25T17:55:49;9.68;;;3.15;;
59167;SDS011;44948;55.046;73.266;2023-04-25T17:58:51;7.05;;;3.17;;
59167;SDS011;44948;55.046;73.266;2023-04-25T18:01:53;7.97;;;3.13;;
59167;SDS011;44948;55.046;73.266;2023-04-25T18:04:57;10.23;;;3.25;;
59167;SDS011;44948;55.046;73.266;2023-04-25T18:08:00;6.43;;;3.03;;
59167;SDS011;44948;55.046;73.266;2023-04-25T18:11:03;7.97;;;3.38;;
59167;SDS011;44948;55.046;73.266;2023-04-25T18:14:06;10.68;;;4.15;;
59167;SDS011;44948;55.046;73.266;2023-04-25T18:17:19;6.55;;;2.60;;
59167;SDS011;44948;55.046;73.266;2023-04-25T18:20:25;5.70;;;2.65;;
59167;SDS011;44948;55.046;73.266;2023-04-25T18:23:29;6.18;;;2.45;;
59167;SDS011;44948;55.046;73.266;2023-04-25T18:26:32;4.30;;;2.13;;
59167;SDS011;44948;55.046;73.266;2023-04-25T18:29:35;6.63;;;2.90;;
59167;SDS011;44948;55.046;73.266;2023-04-25T18:32:38;8.77;;;3.92;;
59167;SDS011;44948;55.046;73.266;2023-04-25T18:35:40;4.68;;;2.10;;
59167;SDS011;44948;55.046;73.266;2023-04-25T18:38:43;9.57;;;2.58;;
59167;SDS011;44948;55.046;73.266;2023-04-25T18:41:45;6.57;;;3.40;;
59167;SDS011;44948;55.046;73.266;2023-04-25T18:44:47;8.32;;;3.78;;
59167;SDS011;44948;55.046;73.266;2023-04-25T18:47:59;12.57;;;4.13;;